createdAt,value
2019-04-20T00:01:31.958Z,59.03
2019-04-20T00:04:01.124Z,58.94
2019-04-20T00:06:39.856Z,59.45
2019-04-20T00:09:18.289Z,59.92
2019-04-20T00:11:53.537Z,60.53
2019-04-20T00:14:22.409Z,61.10
2019-04-20T00:16:50.553Z,61.64
2019-04-20T00:19:30.147Z,62.30
2019-04-20T00:22:02.932Z,63.10
2019-04-20T00:24:37.525Z,63.00
2019-04-20T00:27:32.939Z,63.33
2019-04-20T00:30:00.331Z,63.82
2019-04-20T00:32:29.638Z,64.09
2019-04-20T00:34:50.743Z,64.52
2019-04-20T00:37:23.394Z,64.88
2019-04-20T00:39:57.759Z,65.19
2019-04-20T00:42:36.898Z,65.41
2019-04-20T00:45:10.611Z,65.78
2019-04-20T00:47:48.950Z,65.88
2019-04-20T00:50:32.639Z,66.23
2019-04-20T00:53:00.601Z,66.70
2019-04-20T00:55:19.011Z,67.02
2019-04-20T00:57:57.004Z,67.19
2019-04-20T01:00:42.506Z,67.39
2019-04-20T01:03:16.804Z,67.46
2019-04-20T01:05:54.096Z,67.71
2019-04-20T01:08:25.573Z,67.64
2019-04-20T01:10:59.098Z,67.71
2019-04-20T01:13:31.796Z,67.93
2019-04-20T01:16:10.818Z,68.55
2019-04-20T01:18:38.379Z,68.55
2019-04-20T01:21:17.547Z,68.08
2019-04-20T01:23:51.232Z,68.21
2019-04-20T01:26:21.488Z,68.32
2019-04-20T01:29:06.620Z,68.52
2019-04-20T01:31:35.541Z,68.63
2019-04-20T01:34:08.335Z,68.76
2019-04-20T01:36:50.397Z,68.90
2019-04-20T01:39:18.391Z,69.14
2019-04-20T01:41:41.342Z,69.39
2019-04-20T01:44:13.485Z,69.69
2019-04-20T01:46:51.426Z,69.67
2019-04-20T01:49:22.744Z,69.84
2019-04-20T01:52:04.866Z,70.00
2019-04-20T01:54:51.124Z,70.14
2019-04-20T01:57:13.643Z,70.34
2019-04-20T01:59:51.790Z,70.65
2019-04-20T02:02:34.398Z,70.92
2019-04-20T02:05:12.710Z,71.26
2019-04-20T02:07:43.578Z,71.72
2019-04-20T02:10:15.674Z,72.16
2019-04-20T02:12:51.884Z,72.44
2019-04-20T02:15:29.992Z,73.13
2019-04-20T02:18:07.502Z,73.20
2019-04-20T02:20:50.283Z,73.42
2019-04-20T02:23:16.457Z,73.64
2019-04-20T02:25:35.795Z,73.79
2019-04-20T02:28:27.252Z,73.88
2019-04-20T02:31:29.945Z,74.07
2019-04-20T02:36:47.954Z,74.46
2019-04-20T02:44:21.805Z,74.62
2019-04-20T02:46:52.629Z,74.67
2019-04-20T02:51:53.863Z,74.88
2019-04-20T02:57:05.735Z,75.24
2019-04-20T02:59:53.561Z,75.41
2019-04-20T03:01:55.318Z,75.58
2019-04-20T03:04:20.307Z,75.79
2019-04-20T03:06:59.364Z,75.92
2019-04-20T03:09:51.511Z,76.03
2019-04-20T03:12:17.035Z,76.14
2019-04-20T03:14:39.387Z,76.28
2019-04-20T03:17:21.423Z,76.33
2019-04-20T03:19:44.633Z,76.40
2019-04-20T03:22:33.733Z,76.45
2019-04-20T03:25:07.939Z,76.40
2019-04-20T03:27:33.181Z,76.34
2019-04-20T03:30:22.848Z,76.27
2019-04-20T03:33:03.821Z,76.22
2019-04-20T03:35:22.615Z,76.15
2019-04-20T03:37:52.493Z,75.97
2019-04-20T03:40:21.326Z,75.85
2019-04-20T03:42:40.490Z,75.71
2019-04-20T03:45:17.233Z,75.51
2019-04-20T03:47:57.355Z,75.37
2019-04-20T03:50:41.170Z,75.25
2019-04-20T03:53:19.787Z,75.15
2019-04-20T03:55:44.824Z,74.96
2019-04-20T03:58:24.282Z,74.63
2019-04-20T04:00:59.849Z,74.46
2019-04-20T04:03:51.252Z,74.44
2019-04-20T04:06:09.575Z,74.28
2019-04-20T04:08:39.519Z,74.21
2019-04-20T04:11:26.254Z,73.99
2019-04-20T04:13:41.920Z,73.83
2019-04-20T04:16:17.330Z,73.64
2019-04-20T04:18:58.441Z,73.47
2019-04-20T04:21:41.184Z,73.39
2019-04-20T04:24:10.667Z,73.28
2019-04-20T04:26:44.138Z,73.28
2019-04-20T04:29:24.612Z,73.24
2019-04-20T04:32:06.674Z,73.27
2019-04-20T04:34:30.599Z,73.17
2019-04-20T04:37:03.692Z,73.05
2019-04-20T04:39:36.948Z,72.83
2019-04-20T04:42:16.648Z,72.56
2019-04-20T04:44:37.766Z,72.22
2019-04-20T04:47:02.772Z,71.54
2019-04-20T04:49:36.556Z,70.70
2019-04-20T04:52:10.347Z,69.88
2019-04-20T04:54:47.294Z,69.20
2019-04-20T04:57:13.574Z,68.55
2019-04-20T04:59:46.453Z,68.04
2019-04-20T05:02:22.531Z,67.89
2019-04-20T05:05:17.389Z,67.79
2019-04-20T05:07:51.945Z,67.45
2019-04-20T05:10:11.934Z,66.77
2019-04-20T05:12:44.083Z,63.55
2019-04-20T05:15:32.435Z,56.96
2019-04-20T05:18:13.110Z,55.33
2019-04-20T05:20:48.807Z,54.68
2019-04-20T05:23:16.306Z,51.78
2019-04-20T05:26:01.886Z,49.88
2019-04-20T05:28:33.603Z,47.45
2019-04-20T05:31:02.336Z,47.31
2019-04-20T05:33:57.125Z,45.42
2019-04-20T05:36:23.359Z,45.12
2019-04-20T05:39:02.552Z,44.85
2019-04-20T05:41:32.835Z,44.85
2019-04-20T05:44:08.757Z,44.98
2019-04-20T05:46:45.910Z,44.08
2019-04-20T05:49:23.345Z,42.76
2019-04-20T05:52:18.551Z,43.22
2019-04-20T05:54:26.819Z,42.79
2019-04-20T05:57:07.857Z,42.98
2019-04-20T05:59:34.796Z,43.28
2019-04-20T06:02:09.955Z,42.79
2019-04-20T06:04:58.787Z,43.32
2019-04-20T06:10:09.850Z,41.23
2019-04-20T06:15:18.423Z,41.76
2019-04-20T06:18:06.639Z,39.70
2019-04-20T06:21:02.283Z,38.69
2019-04-20T06:23:34.267Z,39.09
2019-04-20T06:26:12.754Z,38.99
2019-04-20T06:28:30.226Z,38.64
2019-04-20T06:31:11.343Z,39.14
2019-04-20T06:36:54.243Z,38.17
2019-04-20T06:39:31.164Z,37.46
2019-04-20T06:44:36.925Z,37.65
2019-04-20T06:47:24.493Z,37.36
2019-04-20T06:49:40.604Z,38.28
2019-04-20T06:52:26.196Z,37.19
2019-04-20T06:55:01.058Z,35.68
2019-04-20T06:57:43.476Z,36.32
2019-04-20T07:00:17.204Z,35.72
2019-04-20T07:02:49.675Z,35.08
2019-04-20T07:05:23.634Z,34.98
2019-04-20T07:08:02.024Z,34.37
2019-04-20T07:10:31.366Z,33.35
2019-04-20T07:12:55.460Z,34.03
2019-04-20T07:15:32.956Z,34.37
2019-04-20T07:18:08.195Z,34.72
2019-04-20T07:20:55.652Z,34.85
2019-04-20T07:25:54.290Z,33.93
2019-04-20T07:28:32.748Z,31.85
2019-04-20T07:31:01.915Z,32.88
2019-04-20T07:33:40.240Z,33.48
2019-04-20T07:36:14.764Z,33.85
2019-04-20T07:38:52.166Z,34.25
2019-04-20T07:41:20.302Z,32.37
2019-04-20T07:43:59.063Z,32.03
2019-04-20T07:46:40.693Z,32.10
2019-04-20T07:48:54.381Z,31.83
2019-04-20T07:51:19.403Z,30.11
2019-04-20T07:54:10.581Z,29.54
2019-04-20T07:56:44.792Z,29.99
2019-04-20T07:58:57.097Z,31.29
2019-04-20T08:02:01.150Z,31.10
2019-04-20T08:04:30.049Z,29.86
2019-04-20T08:06:53.105Z,30.92
2019-04-20T08:09:30.735Z,30.47
2019-04-20T08:12:22.122Z,30.09
2019-04-20T08:14:57.539Z,30.06
2019-04-20T08:17:31.423Z,30.28
2019-04-20T08:20:00.137Z,30.64
2019-04-20T08:22:34.183Z,30.96
2019-04-20T08:25:01.901Z,29.53
2019-04-20T08:27:23.496Z,29.20
2019-04-20T08:30:09.208Z,29.25
2019-04-20T08:33:04.171Z,30.24
2019-04-20T08:35:51.188Z,29.45
2019-04-20T08:40:49.081Z,30.06
2019-04-20T08:43:39.543Z,29.47
2019-04-20T08:46:01.587Z,29.40
2019-04-20T08:48:33.233Z,29.94
2019-04-20T08:51:03.480Z,29.53
2019-04-20T08:53:36.462Z,29.08
2019-04-20T08:56:06.993Z,28.91
2019-04-20T08:58:27.173Z,29.54
2019-04-20T09:01:03.524Z,29.73
2019-04-20T09:03:46.244Z,30.45
2019-04-20T09:06:25.326Z,29.41
2019-04-20T09:08:53.205Z,29.80
2019-04-20T09:11:30.944Z,30.63
2019-04-20T09:13:52.004Z,30.09
2019-04-20T09:16:28.576Z,30.30
2019-04-20T09:18:59.974Z,29.91
2019-04-20T09:21:38.980Z,30.39
2019-04-20T09:24:26.813Z,30.89
2019-04-20T09:26:56.804Z,30.37
2019-04-20T09:29:19.527Z,29.09
2019-04-20T09:32:00.270Z,29.50
2019-04-20T09:34:42.641Z,29.38
2019-04-20T09:37:27.886Z,29.10
2019-04-20T09:39:54.371Z,29.38
2019-04-20T09:42:19.222Z,30.11
2019-04-20T09:44:55.918Z,30.71
2019-04-20T09:47:32.654Z,30.16
2019-04-20T09:50:10.834Z,30.46
2019-04-20T09:52:51.603Z,28.89
2019-04-20T09:55:18.774Z,29.52
2019-04-20T09:57:58.622Z,29.35
2019-04-20T10:00:29.169Z,29.20
2019-04-20T10:02:50.522Z,29.28
2019-04-20T10:05:23.300Z,28.43
2019-04-20T10:07:59.912Z,28.18
2019-04-20T10:10:35.979Z,28.46
2019-04-20T10:13:05.591Z,28.24
2019-04-20T10:15:37.514Z,28.34
2019-04-20T10:18:10.016Z,28.89
2019-04-20T10:20:43.526Z,30.45
2019-04-20T10:23:16.478Z,29.90
2019-04-20T10:25:48.764Z,28.63
2019-04-20T10:28:21.544Z,29.31
2019-04-20T10:30:54.636Z,29.51
2019-04-20T10:33:26.352Z,28.96
2019-04-20T10:35:59.409Z,28.95
2019-04-20T10:38:35.597Z,29.84
2019-04-20T10:41:11.510Z,28.20
2019-04-20T10:43:38.746Z,28.79
2019-04-20T10:46:11.088Z,28.14
2019-04-20T10:48:47.989Z,28.80
2019-04-20T10:51:17.742Z,26.49
2019-04-20T10:53:50.613Z,26.63
2019-04-20T10:56:23.254Z,25.85
2019-04-20T10:58:56.101Z,27.53
2019-04-20T11:01:29.678Z,26.79
2019-04-20T11:04:03.013Z,26.43
2019-04-20T11:06:36.520Z,27.44
2019-04-20T11:09:09.000Z,27.71
2019-04-20T11:11:41.098Z,27.33
2019-04-20T11:14:20.907Z,26.43
2019-04-20T11:16:46.701Z,27.33
2019-04-20T11:19:21.213Z,26.28
2019-04-20T11:21:54.427Z,27.09
2019-04-20T11:24:28.229Z,27.16
2019-04-20T11:27:04.504Z,26.92
2019-04-20T11:29:38.543Z,26.58
2019-04-20T11:32:15.757Z,26.67
2019-04-20T11:34:49.183Z,26.93
2019-04-20T11:37:24.784Z,25.71
2019-04-20T11:40:01.353Z,26.16
2019-04-20T11:42:37.351Z,26.66
2019-04-20T11:45:10.911Z,27.28
2019-04-20T11:47:43.409Z,26.54
2019-04-20T11:50:19.850Z,26.40
2019-04-20T11:52:53.004Z,26.67
2019-04-20T11:55:24.893Z,26.01
2019-04-20T11:57:58.296Z,26.03
2019-04-20T12:03:35.410Z,25.81
2019-04-20T12:06:02.771Z,26.57
2019-04-20T12:08:36.044Z,27.60
2019-04-20T12:11:22.997Z,27.30
2019-04-20T12:13:42.737Z,25.00
2019-04-20T12:16:14.628Z,26.20
2019-04-20T12:18:46.694Z,27.52
2019-04-20T12:21:19.018Z,26.46
2019-04-20T12:23:51.930Z,25.65
2019-04-20T12:26:24.841Z,27.21
2019-04-20T12:28:57.897Z,25.48
2019-04-20T12:31:29.865Z,25.88
2019-04-20T12:34:02.260Z,25.62
2019-04-20T12:36:35.301Z,25.33
2019-04-20T12:39:10.971Z,25.48
2019-04-20T12:41:49.851Z,26.04
2019-04-20T12:44:17.554Z,26.86
2019-04-20T12:46:49.919Z,25.53
2019-04-20T12:49:21.627Z,26.27
2019-04-20T12:51:57.994Z,26.78
2019-04-20T12:54:27.091Z,26.27
2019-04-20T12:56:58.967Z,25.34
2019-04-20T12:59:31.667Z,26.16
2019-04-20T13:02:03.321Z,25.24
2019-04-20T13:04:37.273Z,26.44
2019-04-20T13:07:10.129Z,26.65
2019-04-20T13:09:50.791Z,25.66
2019-04-20T13:12:26.477Z,26.21
2019-04-20T13:15:08.634Z,25.96
2019-04-20T13:17:40.466Z,26.38
2019-04-20T13:20:14.038Z,25.90
2019-04-20T13:22:46.624Z,25.42
2019-04-20T13:25:19.049Z,25.81
2019-04-20T13:27:51.009Z,26.56
2019-04-20T13:30:23.872Z,27.49
2019-04-20T13:32:57.108Z,25.55
2019-04-20T13:35:30.102Z,25.26
2019-04-20T13:38:02.427Z,25.63
2019-04-20T13:40:35.401Z,24.88
2019-04-20T13:43:09.915Z,24.81
2019-04-20T13:45:42.660Z,25.09
2019-04-20T13:48:15.200Z,24.56
2019-04-20T13:50:47.168Z,24.36
2019-04-20T13:53:19.176Z,25.17
2019-04-20T13:55:51.914Z,24.70
2019-04-20T13:58:41.804Z,24.24
2019-04-20T14:01:30.983Z,24.02
2019-04-20T14:04:14.891Z,24.03
2019-04-20T14:06:48.109Z,22.98
2019-04-20T14:09:21.349Z,22.74
2019-04-20T14:11:53.643Z,23.38
2019-04-20T14:14:25.641Z,23.62
2019-04-20T14:16:58.935Z,24.12
2019-04-20T14:19:31.424Z,24.44
2019-04-20T14:22:03.991Z,24.28
2019-04-20T14:24:37.128Z,24.35
2019-04-20T14:27:09.038Z,24.77
2019-04-20T14:29:41.232Z,25.29
2019-04-20T14:32:14.736Z,24.85
2019-04-20T14:34:47.048Z,25.07
2019-04-20T14:37:18.922Z,25.73
2019-04-20T14:39:52.335Z,25.79
2019-04-20T14:42:34.793Z,25.68
2019-04-20T14:44:57.612Z,25.77
2019-04-20T14:47:29.856Z,25.52
2019-04-20T14:50:03.209Z,25.74
2019-04-20T14:52:35.458Z,25.76
2019-04-20T14:55:07.903Z,26.05
2019-04-20T14:57:39.786Z,25.87
2019-04-20T15:00:27.848Z,25.90
2019-04-20T15:03:01.855Z,25.63
2019-04-20T15:05:33.099Z,26.09
2019-04-20T15:08:04.823Z,26.75
2019-04-20T15:10:36.921Z,26.25
2019-04-20T15:13:10.142Z,27.27
2019-04-20T15:15:41.970Z,27.38
2019-04-20T15:18:15.560Z,27.24
2019-04-20T15:20:48.941Z,26.52
2019-04-20T15:23:23.620Z,26.97
2019-04-20T15:25:55.863Z,26.71
2019-04-20T15:28:28.488Z,26.28
2019-04-20T15:31:00.536Z,26.69
2019-04-20T15:33:33.369Z,26.50
2019-04-20T15:36:06.275Z,26.26
2019-04-20T15:38:38.799Z,25.77
2019-04-20T15:41:13.199Z,25.77
2019-04-20T15:43:45.402Z,25.85
2019-04-20T15:46:19.351Z,25.50
2019-04-20T15:48:52.379Z,25.68
2019-04-20T15:51:25.832Z,25.15
2019-04-20T15:53:57.769Z,24.62
2019-04-20T15:56:30.774Z,24.42
2019-04-20T15:59:02.457Z,24.89
2019-04-20T16:01:36.608Z,24.50
2019-04-20T16:04:24.308Z,24.94
2019-04-20T16:06:47.436Z,25.65
2019-04-20T16:09:19.955Z,26.05
2019-04-20T16:11:53.238Z,26.46
2019-04-20T16:14:25.790Z,26.92
2019-04-20T16:16:58.276Z,27.45
2019-04-20T16:19:40.708Z,27.61
2019-04-20T16:22:03.975Z,27.99
2019-04-20T16:24:46.863Z,28.05
2019-04-20T16:27:29.712Z,28.31
2019-04-20T16:30:02.043Z,29.26
2019-04-20T16:32:36.575Z,29.84
2019-04-20T16:35:09.071Z,30.52
2019-04-20T16:37:40.815Z,30.94
2019-04-20T16:40:13.834Z,31.83
2019-04-20T16:42:45.805Z,32.10
2019-04-20T16:45:19.055Z,32.50
2019-04-20T16:47:50.811Z,33.54
2019-04-20T16:50:22.913Z,33.92
2019-04-20T16:52:54.970Z,35.01
2019-04-20T16:55:28.406Z,35.67
2019-04-20T16:58:01.653Z,36.14
2019-04-20T17:00:35.737Z,36.76
2019-04-20T17:03:07.494Z,37.35
2019-04-20T17:05:39.325Z,37.63
2019-04-20T17:08:11.319Z,38.06
2019-04-20T17:10:44.550Z,38.43
2019-04-20T17:13:28.408Z,38.96
2019-04-20T17:15:51.872Z,39.68
2019-04-20T17:18:23.643Z,40.18
2019-04-20T17:20:56.576Z,40.87
2019-04-20T17:23:28.599Z,41.28
2019-04-20T17:26:02.130Z,41.28
2019-04-20T17:28:52.542Z,41.24
2019-04-20T17:31:29.328Z,41.57
2019-04-20T17:34:11.078Z,41.83
2019-04-20T17:36:37.100Z,42.03
2019-04-20T17:39:12.028Z,42.48
2019-04-20T17:42:00.462Z,42.94
2019-04-20T17:44:33.420Z,43.05
2019-04-20T17:47:01.546Z,43.16
2019-04-20T17:49:35.467Z,43.46
2019-04-20T17:54:43.229Z,44.87
2019-04-20T17:57:17.136Z,45.83
2019-04-20T17:59:57.860Z,46.78
2019-04-20T18:02:49.345Z,47.19
2019-04-20T18:05:37.132Z,47.58
2019-04-20T18:08:10.593Z,47.98
2019-04-20T18:10:38.177Z,48.56
2019-04-20T18:12:58.662Z,49.69
2019-04-20T18:15:46.457Z,51.33
2019-04-20T18:18:35.473Z,53.33
2019-04-20T18:20:59.134Z,54.66
2019-04-20T18:23:36.579Z,54.75
2019-04-20T18:26:27.605Z,54.51
2019-04-20T18:29:03.514Z,53.57
2019-04-20T18:31:13.539Z,53.09
2019-04-20T18:33:46.501Z,53.40
2019-04-20T18:36:27.275Z,54.24
2019-04-20T18:38:58.616Z,55.07
2019-04-20T18:41:35.351Z,55.16
2019-04-20T18:44:00.816Z,54.99
2019-04-20T18:46:54.569Z,54.74
2019-04-20T18:49:18.220Z,55.00
2019-04-20T18:51:39.878Z,55.13
2019-04-20T18:54:19.451Z,55.21
2019-04-20T18:56:50.366Z,55.26
2019-04-20T18:59:19.054Z,55.22
2019-04-20T19:01:51.025Z,55.45
2019-04-20T19:04:25.867Z,55.32
2019-04-20T19:06:57.257Z,55.31
2019-04-20T19:09:30.900Z,55.73
2019-04-20T19:12:06.056Z,56.27
2019-04-20T19:14:51.364Z,56.78
2019-04-20T19:17:48.473Z,57.20
2019-04-20T19:20:26.417Z,57.49
2019-04-20T19:22:56.310Z,57.65
2019-04-20T19:25:34.575Z,57.70
2019-04-20T19:28:04.973Z,57.82
2019-04-20T19:30:44.990Z,58.16
2019-04-20T19:33:30.241Z,58.21
2019-04-20T19:35:52.937Z,58.27
2019-04-20T19:38:23.726Z,58.62
2019-04-20T19:41:00.144Z,59.08
2019-04-20T19:43:32.960Z,59.46
2019-04-20T19:46:35.556Z,59.86
2019-04-20T19:48:43.255Z,60.42
2019-04-20T19:51:28.610Z,60.87
2019-04-20T19:54:00.047Z,61.21
2019-04-20T19:56:32.363Z,61.53
2019-04-20T19:58:56.336Z,61.65
2019-04-20T20:01:19.748Z,61.90
2019-04-20T20:03:57.488Z,62.14
2019-04-20T20:06:35.441Z,62.41
2019-04-20T20:09:04.230Z,62.58
2019-04-20T20:11:38.527Z,62.68
2019-04-20T20:14:09.814Z,62.93
2019-04-20T20:17:01.616Z,63.09
2019-04-20T20:19:29.542Z,63.36
2019-04-20T20:22:02.400Z,63.55
2019-04-20T20:24:21.481Z,63.68
2019-04-20T20:27:00.327Z,64.34
2019-04-20T20:29:34.082Z,65.44
2019-04-20T20:32:13.275Z,65.85
2019-04-20T20:34:41.781Z,65.89
2019-04-20T20:37:12.506Z,66.16
2019-04-20T20:39:51.121Z,66.11
2019-04-20T20:42:28.228Z,66.17
2019-04-20T20:44:55.026Z,66.25
2019-04-20T20:47:41.355Z,66.35
2019-04-20T20:50:19.999Z,66.43
2019-04-20T20:52:43.691Z,66.60
2019-04-20T20:55:12.040Z,66.84
2019-04-20T20:57:44.551Z,67.22
2019-04-20T21:00:22.675Z,67.98
2019-04-20T21:02:53.114Z,68.36
2019-04-20T21:05:17.870Z,68.87
2019-04-20T21:07:51.317Z,69.38
2019-04-20T21:10:30.038Z,69.80
2019-04-20T21:13:01.369Z,70.18
2019-04-20T21:15:30.297Z,70.35
2019-04-20T21:18:28.756Z,70.55
2019-04-20T21:20:54.025Z,70.78
2019-04-20T21:23:26.028Z,70.78
2019-04-20T21:26:01.653Z,71.30
2019-04-20T21:28:36.078Z,71.53
2019-04-20T21:31:14.674Z,71.43
2019-04-20T21:33:42.889Z,71.40
2019-04-20T21:36:19.105Z,71.23
2019-04-20T21:38:49.933Z,71.12
2019-04-20T21:41:23.990Z,71.03
2019-04-20T21:43:55.984Z,70.95
2019-04-20T21:46:29.861Z,71.02
2019-04-20T21:49:12.509Z,71.18
2019-04-20T21:51:44.351Z,71.38
2019-04-20T21:54:09.658Z,71.55
2019-04-20T21:56:51.231Z,71.65
2019-04-20T21:59:24.428Z,71.68
2019-04-20T22:02:01.314Z,71.79
2019-04-20T22:04:23.157Z,71.89
2019-04-20T22:06:56.210Z,71.95
2019-04-20T22:09:34.738Z,72.06
2019-04-20T22:12:02.093Z,72.11
2019-04-20T22:14:35.633Z,72.33
2019-04-20T22:17:07.815Z,72.65
2019-04-20T22:19:47.436Z,72.98
2019-04-20T22:22:30.567Z,73.28
2019-04-20T22:25:02.614Z,73.53
2019-04-20T22:27:24.588Z,73.84
2019-04-20T22:29:54.363Z,74.15
2019-04-20T22:32:26.278Z,74.46
2019-04-20T22:35:03.188Z,74.75
2019-04-20T22:37:36.575Z,74.94
2019-04-20T22:40:14.129Z,75.15
2019-04-20T22:42:49.459Z,75.29
2019-04-20T22:45:17.366Z,75.46
2019-04-20T22:47:55.046Z,75.58
2019-04-20T22:50:38.878Z,75.69
2019-04-20T22:53:15.610Z,75.83
2019-04-20T22:55:58.068Z,75.90
2019-04-20T22:58:21.176Z,75.93
2019-04-20T23:00:45.279Z,76.06
2019-04-20T23:03:12.395Z,76.14
2019-04-20T23:05:44.921Z,76.26
2019-04-20T23:08:17.072Z,76.31
2019-04-20T23:10:49.804Z,76.26
2019-04-20T23:13:30.370Z,76.32
2019-04-20T23:15:59.121Z,76.52
2019-04-20T23:18:28.502Z,76.62
2019-04-20T23:21:07.973Z,76.79
2019-04-20T23:23:35.585Z,77.01
2019-04-20T23:26:07.334Z,77.06
2019-04-20T23:28:42.144Z,77.16
2019-04-20T23:31:18.343Z,77.27
2019-04-20T23:33:47.755Z,77.29
2019-04-20T23:36:29.279Z,77.18
2019-04-20T23:38:57.727Z,77.10
2019-04-20T23:41:26.369Z,77.09
2019-04-20T23:44:04.168Z,77.07
2019-04-20T23:46:35.051Z,77.23
2019-04-20T23:49:27.265Z,77.38
2019-04-20T23:52:21.951Z,77.53
2019-04-20T23:54:30.296Z,77.65
2019-04-20T23:57:01.812Z,77.80
2019-04-20T23:59:41.160Z,78.01
